Time;durP1;ratioP1;P1;durP2;ratioP2;P2;SDS_P1;SDS_P2;PMS_P1;PMS_P2;Temp;Humidity;BMP_temperature;BMP_pressure;BME280_temperature;BME280_humidity;BME280_pressure;Samples;Min_cycle;Max_cycle;Signal;HPM_P1;HPM_P2
2021/06/18 00:00:34;;;;;;;5.75;3.40;;;;;;;;;;4466989;32;20367;-59
2021/06/18 00:02:59;;;;;;;4.05;2.95;;;;;;;;;;4466503;32;20247;-59
2021/06/18 00:05:26;;;;;;;6.93;3.25;;;;;;;;;;4466432;32;20369;-59
2021/06/18 00:07:52;;;;;;;3.75;2.80;;;;;;;;;;4466561;32;20212;-58
2021/06/18 00:10:20;;;;;;;3.12;2.62;;;;;;;;;;4466964;32;20226;-58
2021/06/18 00:12:46;;;;;;;8.35;3.28;;;;;;;;;;4463656;32;20262;-58
2021/06/18 00:15:12;;;;;;;7.07;3.67;;;;;;;;;;4451092;32;20204;-58
2021/06/18 00:17:38;;;;;;;7.82;3.03;;;;;;;;;;4461158;32;20262;-59
2021/06/18 00:20:08;;;;;;;6.60;2.83;;;;;;;;;;4466824;32;20671;-58
2021/06/18 00:22:35;;;;;;;5.18;3.03;;;;;;;;;;4467090;32;20265;-58
2021/06/18 00:25:01;;;;;;;4.87;2.92;;;;;;;;;;4466630;32;20200;-59
2021/06/18 00:27:27;;;;;;;8.30;3.05;;;;;;;;;;4466705;32;20212;-58
2021/06/18 00:29:52;;;;;;;10.13;2.85;;;;;;;;;;4465910;32;20589;-58
2021/06/18 00:32:18;;;;;;;3.45;2.70;;;;;;;;;;4451266;32;20284;-58
2021/06/18 00:34:44;;;;;;;6.55;3.30;;;;;;;;;;4451149;32;20215;-59
2021/06/18 00:37:09;;;;;;;6.43;3.78;;;;;;;;;;4451269;32;20302;-59
2021/06/18 00:39:35;;;;;;;7.62;2.97;;;;;;;;;;4451119;32;20222;-59
2021/06/18 00:42:01;;;;;;;6.45;3.25;;;;;;;;;;4451038;32;20229;-59
2021/06/18 00:44:27;;;;;;;4.18;3.45;;;;;;;;;;4450758;32;20213;-59
2021/06/18 00:46:53;;;;;;;8.85;3.60;;;;;;;;;;4450839;32;20541;-58
2021/06/18 00:49:18;;;;;;;6.53;2.90;;;;;;;;;;4449221;32;20217;-59
2021/06/18 00:51:44;;;;;;;14.18;3.53;;;;;;;;;;4449503;32;20376;-59
2021/06/18 00:54:12;;;;;;;8.43;3.50;;;;;;;;;;4450426;32;20314;-59
2021/06/18 00:56:38;;;;;;;4.80;2.83;;;;;;;;;;4450347;32;20361;-59
2021/06/18 00:59:04;;;;;;;4.62;4.10;;;;;;;;;;4450668;32;20288;-59
2021/06/18 01:01:30;;;;;;;4.12;3.53;;;;;;;;;;4450829;32;20575;-58
2021/06/18 01:03:55;;;;;;;7.85;4.22;;;;;;;;;;4453506;32;20203;-58
2021/06/18 01:06:36;;;;;;;4.07;3.30;;;;;;;;;;4466152;32;20250;-58
2021/06/18 01:09:06;;;;;;;5.37;3.83;;;;;;;;;;4465727;32;20606;-58
2021/06/18 01:11:44;;;;;;;8.52;3.47;;;;;;;;;;4464484;32;20229;-58
2021/06/18 01:14:23;;;;;;;4.15;3.75;;;;;;;;;;4465363;32;20215;-60
2021/06/18 01:16:55;;;;;;;8.82;3.62;;;;;;;;;;4460250;32;20270;-60
2021/06/18 01:19:38;;;;;;;13.27;4.72;;;;;;;;;;4449974;32;20208;-59
2021/06/18 01:22:08;;;;;;;5.18;4.15;;;;;;;;;;4450121;32;20473;-59
2021/06/18 01:24:47;;;;;;;9.73;3.78;;;;;;;;;;4450286;32;20274;-58
2021/06/18 01:27:31;;;;;;;5.62;4.18;;;;;;;;;;4449841;32;20220;-58
2021/06/18 01:30:19;;;;;;;5.45;4.28;;;;;;;;;;4449632;32;20709;-58
2021/06/18 01:33:03;;;;;;;5.45;4.37;;;;;;;;;;4464741;32;20275;-59
2021/06/18 01:35:46;;;;;;;7.20;4.03;;;;;;;;;;4465541;32;20200;-59
2021/06/18 01:38:12;;;;;;;6.85;4.72;;;;;;;;;;4465535;32;20250;-59
2021/06/18 01:40:41;;;;;;;4.93;4.12;;;;;;;;;;4465617;32;20257;-60
2021/06/18 01:43:09;;;;;;;6.32;4.62;;;;;;;;;;4465390;32;20223;-59
2021/06/18 01:45:36;;;;;;;5.18;4.32;;;;;;;;;;4465428;32;20230;-59
2021/06/18 01:48:05;;;;;;;4.47;3.97;;;;;;;;;;4465848;32;20700;-58
2021/06/18 01:50:32;;;;;;;7.97;4.25;;;;;;;;;;4465684;32;20204;-59
2021/06/18 01:53:05;;;;;;;6.45;4.20;;;;;;;;;;4465723;32;20246;-59
2021/06/18 01:55:32;;;;;;;6.32;4.40;;;;;;;;;;4464382;32;20191;-59
2021/06/18 01:58:00;;;;;;;6.03;3.85;;;;;;;;;;4465813;32;20253;-58
2021/06/18 02:00:28;;;;;;;9.00;4.55;;;;;;;;;;4465543;32;20250;-58
2021/06/18 02:02:56;;;;;;;5.55;4.37;;;;;;;;;;4465615;32;20381;-58
2021/06/18 02:05:23;;;;;;;6.43;3.92;;;;;;;;;;4465260;32;20555;-58
2021/06/18 02:07:51;;;;;;;4.95;4.45;;;;;;;;;;4465466;32;20458;-57
2021/06/18 02:10:19;;;;;;;7.18;5.70;;;;;;;;;;4465462;32;20204;-57
2021/06/18 02:12:47;;;;;;;4.90;4.00;;;;;;;;;;4461734;32;20228;-59
2021/06/18 02:15:14;;;;;;;5.25;4.22;;;;;;;;;;4449762;32;20219;-58
2021/06/18 02:17:40;;;;;;;11.35;4.43;;;;;;;;;;4460776;32;20296;-59
2021/06/18 02:20:07;;;;;;;5.55;3.67;;;;;;;;;;4465475;32;20200;-59
2021/06/18 02:22:34;;;;;;;29.77;4.12;;;;;;;;;;4465690;32;20219;-59
2021/06/18 02:25:03;;;;;;;7.93;4.22;;;;;;;;;;4465346;32;20294;-59
2021/06/18 02:27:29;;;;;;;8.52;5.03;;;;;;;;;;4465431;32;20313;-60
2021/06/18 02:29:54;;;;;;;7.03;3.80;;;;;;;;;;4464776;32;20600;-59
2021/06/18 02:32:22;;;;;;;4.50;3.75;;;;;;;;;;4449907;32;20277;-58
2021/06/18 02:34:49;;;;;;;5.65;4.65;;;;;;;;;;4448410;32;20217;-59
2021/06/18 02:37:14;;;;;;;8.75;4.40;;;;;;;;;;4448813;32;20365;-59
2021/06/18 02:39:42;;;;;;;5.18;4.55;;;;;;;;;;4449646;32;20461;-59
2021/06/18 02:42:09;;;;;;;5.90;4.37;;;;;;;;;;4449766;32;20318;-59
2021/06/18 02:44:34;;;;;;;5.70;4.60;;;;;;;;;;4449641;32;20226;-58
2021/06/18 02:47:15;;;;;;;10.82;4.00;;;;;;;;;;4449977;32;20605;-57
2021/06/18 02:49:40;;;;;;;4.60;3.70;;;;;;;;;;4449809;32;20197;-57
2021/06/18 02:52:08;;;;;;;5.97;3.85;;;;;;;;;;4449703;32;20656;-58
2021/06/18 02:54:39;;;;;;;5.00;4.07;;;;;;;;;;4447984;32;20740;-58
2021/06/18 02:57:17;;;;;;;7.82;4.47;;;;;;;;;;4448481;32;20229;-58
2021/06/18 02:59:54;;;;;;;7.03;4.43;;;;;;;;;;4449475;32;20286;-58
2021/06/18 03:02:25;;;;;;;14.38;4.18;;;;;;;;;;4448458;32;20544;-58
2021/06/18 03:04:55;;;;;;;6.07;4.72;;;;;;;;;;4456051;32;20223;-58
2021/06/18 03:07:27;;;;;;;5.80;4.78;;;;;;;;;;4465127;32;20851;-58
2021/06/18 03:09:55;;;;;;;16.55;5.90;;;;;;;;;;4454154;32;20236;-58
2021/06/18 03:12:23;;;;;;;9.18;5.80;;;;;;;;;;4450031;32;20271;-58
2021/06/18 03:14:51;;;;;;;10.00;5.75;;;;;;;;;;4463772;32;20284;-58
2021/06/18 03:17:18;;;;;;;7.20;6.50;;;;;;;;;;4465044;32;20254;-58
2021/06/18 03:19:48;;;;;;;10.13;5.97;;;;;;;;;;4465112;32;20758;-58
2021/06/18 03:22:15;;;;;;;9.55;5.50;;;;;;;;;;4463890;32;20654;-59
2021/06/18 03:24:44;;;;;;;6.80;4.93;;;;;;;;;;4464994;32;20617;-58
2021/06/18 03:27:10;;;;;;;9.82;5.72;;;;;;;;;;4466605;32;20268;-59
2021/06/18 03:29:38;;;;;;;8.43;5.97;;;;;;;;;;4468132;32;20208;-59
2021/06/18 03:32:05;;;;;;;7.93;5.10;;;;;;;;;;4453371;32;20712;-59
2021/06/18 03:34:32;;;;;;;7.22;5.40;;;;;;;;;;4452274;32;20242;-59
2021/06/18 03:36:59;;;;;;;14.30;5.07;;;;;;;;;;4452438;32;20224;-60
2021/06/18 03:39:25;;;;;;;6.62;5.55;;;;;;;;;;4452416;32;20539;-59
2021/06/18 03:41:51;;;;;;;12.75;5.00;;;;;;;;;;4452527;32;20250;-59
2021/06/18 03:44:19;;;;;;;7.15;5.32;;;;;;;;;;4450780;32;20299;-59
2021/06/18 03:46:46;;;;;;;7.25;5.30;;;;;;;;;;4452381;32;20232;-59
2021/06/18 03:49:13;;;;;;;7.62;5.20;;;;;;;;;;4451842;32;20200;-59
2021/06/18 03:51:38;;;;;;;7.87;4.32;;;;;;;;;;4452201;32;20212;-60
2021/06/18 03:54:05;;;;;;;6.50;4.40;;;;;;;;;;4451525;32;20299;-60
2021/06/18 03:56:31;;;;;;;13.60;7.00;;;;;;;;;;4451842;32;20244;-59
2021/06/18 03:58:58;;;;;;;10.43;7.12;;;;;;;;;;4451700;32;20630;-58
2021/06/18 04:01:27;;;;;;;10.95;7.00;;;;;;;;;;4450426;32;20651;-58
2021/06/18 04:03:53;;;;;;;16.17;7.75;;;;;;;;;;4451421;32;20329;-59
2021/06/18 04:06:20;;;;;;;9.90;6.03;;;;;;;;;;4462674;32;20561;-58
2021/06/18 04:08:46;;;;;;;9.18;7.37;;;;;;;;;;4463107;32;20201;-58
2021/06/18 04:11:14;;;;;;;14.82;6.62;;;;;;;;;;4451217;32;20239;-58
2021/06/18 04:13:41;;;;;;;13.05;7.18;;;;;;;;;;4459896;32;20208;-58
2021/06/18 04:16:08;;;;;;;14.25;6.72;;;;;;;;;;4467134;32;20522;-58
2021/06/18 04:18:36;;;;;;;11.70;6.32;;;;;;;;;;4466606;32;20298;-60
2021/06/18 04:21:03;;;;;;;13.23;8.13;;;;;;;;;;4466816;32;20212;-60
2021/06/18 04:23:29;;;;;;;10.73;6.90;;;;;;;;;;4466689;32;20212;-59
2021/06/18 04:25:56;;;;;;;7.65;6.28;;;;;;;;;;4466922;32;20270;-59
2021/06/18 04:28:22;;;;;;;9.45;6.47;;;;;;;;;;4466657;32;20309;-58
2021/06/18 04:30:47;;;;;;;10.25;6.93;;;;;;;;;;4464135;32;20672;-59
2021/06/18 04:33:13;;;;;;;9.50;6.95;;;;;;;;;;4451221;32;20290;-59
2021/06/18 04:35:39;;;;;;;12.70;6.70;;;;;;;;;;4450772;32;20294;-59
2021/06/18 04:38:04;;;;;;;14.43;7.75;;;;;;;;;;4450642;32;20285;-59
2021/06/18 04:40:30;;;;;;;8.90;7.12;;;;;;;;;;4450992;32;20708;-60
2021/06/18 04:42:55;;;;;;;17.15;7.85;;;;;;;;;;4450962;32;20242;-59
2021/06/18 04:45:21;;;;;;;9.40;7.35;;;;;;;;;;4451047;32;20231;-60
2021/06/18 04:47:47;;;;;;;12.73;8.10;;;;;;;;;;4450823;32;20225;-59
2021/06/18 04:50:12;;;;;;;9.40;7.55;;;;;;;;;;4450562;32;20677;-59
2021/06/18 04:52:41;;;;;;;15.98;8.52;;;;;;;;;;4450804;32;20220;-58
2021/06/18 04:55:09;;;;;;;13.10;7.70;;;;;;;;;;4450784;32;20193;-58
2021/06/18 04:57:35;;;;;;;10.95;8.55;;;;;;;;;;4450943;32;20216;-58
2021/06/18 05:00:01;;;;;;;8.35;7.32;;;;;;;;;;4451471;32;20205;-58
2021/06/18 05:02:26;;;;;;;8.98;6.53;;;;;;;;;;4450459;32;20271;-58
2021/06/18 05:04:51;;;;;;;14.02;7.50;;;;;;;;;;4450659;32;20670;-58
2021/06/18 05:07:17;;;;;;;12.63;7.20;;;;;;;;;;4459979;32;20704;-58
2021/06/18 05:09:42;;;;;;;21.42;7.97;;;;;;;;;;4466073;32;20633;-58
2021/06/18 05:12:08;;;;;;;13.40;7.72;;;;;;;;;;4466337;32;20220;-58
2021/06/18 05:14:34;;;;;;;8.63;7.65;;;;;;;;;;4465329;32;20216;-58
2021/06/18 05:16:59;;;;;;;13.05;7.35;;;;;;;;;;4460038;32;20221;-58
2021/06/18 05:19:25;;;;;;;14.65;7.80;;;;;;;;;;4449235;32;20715;-58
2021/06/18 05:21:50;;;;;;;16.30;8.43;;;;;;;;;;4449211;32;20285;-58
2021/06/18 05:24:16;;;;;;;12.30;8.68;;;;;;;;;;4450161;32;20313;-58
2021/06/18 05:26:41;;;;;;;11.07;8.93;;;;;;;;;;4450479;32;20225;-58
2021/06/18 05:29:07;;;;;;;13.45;9.23;;;;;;;;;;4449184;32;20224;-58
2021/06/18 05:31:33;;;;;;;13.95;7.97;;;;;;;;;;4457410;32;20254;-58
2021/06/18 05:33:58;;;;;;;15.38;8.88;;;;;;;;;;4465620;32;20196;-58
2021/06/18 05:36:24;;;;;;;15.38;7.87;;;;;;;;;;4465795;32;20228;-58
2021/06/18 05:38:49;;;;;;;13.57;6.87;;;;;;;;;;4465471;32;20193;-58
2021/06/18 05:41:15;;;;;;;18.40;9.57;;;;;;;;;;4464677;32;20232;-58
2021/06/18 05:43:40;;;;;;;13.50;8.20;;;;;;;;;;4464457;32;20357;-58
2021/06/18 05:46:05;;;;;;;12.52;8.95;;;;;;;;;;4464533;32;20303;-58
2021/06/18 05:48:31;;;;;;;15.18;7.18;;;;;;;;;;4465678;32;20211;-58
2021/06/18 05:50:57;;;;;;;10.25;8.48;;;;;;;;;;4465607;32;20706;-58
2021/06/18 05:53:23;;;;;;;12.85;7.30;;;;;;;;;;4465780;32;20192;-59
2021/06/18 05:55:49;;;;;;;7.62;6.50;;;;;;;;;;4465635;32;20233;-58
2021/06/18 05:58:15;;;;;;;7.95;7.03;;;;;;;;;;4466192;32;20346;-58
2021/06/18 06:00:43;;;;;;;6.65;5.93;;;;;;;;;;4465952;32;20293;-57
2021/06/18 06:03:10;;;;;;;14.30;6.47;;;;;;;;;;4465363;32;20229;-58
2021/06/18 06:05:36;;;;;;;12.40;8.00;;;;;;;;;;4465487;32;20208;-58
2021/06/18 06:08:01;;;;;;;8.20;6.50;;;;;;;;;;4465421;32;20272;-58
2021/06/18 06:10:27;;;;;;;8.60;6.03;;;;;;;;;;4465681;32;20278;-58
2021/06/18 06:12:52;;;;;;;8.95;8.00;;;;;;;;;;4462185;32;20254;-58
2021/06/18 06:15:18;;;;;;;6.85;5.85;;;;;;;;;;4449706;32;20216;-57
2021/06/18 06:17:44;;;;;;;6.28;5.37;;;;;;;;;;4460862;32;20319;-57
2021/06/18 06:20:11;;;;;;;7.65;5.30;;;;;;;;;;4464390;32;20359;-59
2021/06/18 06:22:36;;;;;;;10.23;5.90;;;;;;;;;;4464349;32;20252;-58
2021/06/18 06:25:03;;;;;;;9.80;5.87;;;;;;;;;;4465382;32;20613;-58
2021/06/18 06:27:30;;;;;;;7.30;6.62;;;;;;;;;;4465616;32;20242;-58
2021/06/18 06:29:56;;;;;;;7.87;6.25;;;;;;;;;;4464457;32;20231;-58
2021/06/18 06:32:21;;;;;;;6.25;5.65;;;;;;;;;;4450322;32;20287;-58
2021/06/18 06:34:47;;;;;;;12.48;6.62;;;;;;;;;;4449719;32;20204;-58
2021/06/18 06:37:12;;;;;;;8.10;6.12;;;;;;;;;;4450317;32;20228;-58
2021/06/18 06:39:38;;;;;;;16.70;7.35;;;;;;;;;;4463290;32;20245;-58
2021/06/18 06:42:05;;;;;;;14.87;7.68;;;;;;;;;;4465280;32;20287;-58
2021/06/18 06:44:30;;;;;;;7.10;6.03;;;;;;;;;;4464228;32;20240;-58
2021/06/18 06:46:56;;;;;;;8.15;6.97;;;;;;;;;;4464346;32;20303;-58
2021/06/18 06:49:21;;;;;;;6.32;5.72;;;;;;;;;;4463935;32;20333;-59
2021/06/18 06:51:47;;;;;;;8.27;6.03;;;;;;;;;;4463785;32;20345;-59
2021/06/18 06:54:12;;;;;;;6.70;5.70;;;;;;;;;;4464028;32;20224;-59
2021/06/18 06:56:38;;;;;;;5.90;5.25;;;;;;;;;;4465506;32;20239;-59
2021/06/18 06:59:03;;;;;;;10.40;6.37;;;;;;;;;;4465086;32;20278;-59
2021/06/18 07:01:29;;;;;;;6.87;6.18;;;;;;;;;;4466340;32;20293;-59
2021/06/18 07:03:55;;;;;;;9.40;6.30;;;;;;;;;;4467908;32;20200;-59
2021/06/18 07:06:21;;;;;;;11.82;5.95;;;;;;;;;;4467569;32;20272;-59
2021/06/18 07:08:46;;;;;;;8.43;6.60;;;;;;;;;;4467720;32;20208;-59
2021/06/18 07:11:11;;;;;;;8.02;5.85;;;;;;;;;;4467858;32;20209;-59
2021/06/18 07:13:37;;;;;;;10.55;6.70;;;;;;;;;;4458918;32;20230;-59
2021/06/18 07:16:03;;;;;;;9.75;6.07;;;;;;;;;;4452012;32;20813;-60
2021/06/18 07:18:29;;;;;;;8.65;6.20;;;;;;;;;;4467546;32;20257;-59
2021/06/18 07:20:55;;;;;;;9.23;6.93;;;;;;;;;;4467445;32;20267;-59
2021/06/18 07:23:20;;;;;;;8.30;6.95;;;;;;;;;;4467245;32;20696;-59
2021/06/18 07:25:46;;;;;;;8.38;6.12;;;;;;;;;;4467650;32;20374;-59
2021/06/18 07:28:13;;;;;;;11.60;7.03;;;;;;;;;;4466435;32;20231;-58
2021/06/18 07:30:38;;;;;;;9.88;6.28;;;;;;;;;;4461971;32;20291;-59
2021/06/18 07:33:05;;;;;;;9.30;6.80;;;;;;;;;;4451644;32;20216;-59
2021/06/18 07:35:31;;;;;;;11.20;6.53;;;;;;;;;;4451248;32;20226;-59
2021/06/18 07:37:57;;;;;;;7.80;5.55;;;;;;;;;;4451719;32;20243;-59
2021/06/18 07:40:23;;;;;;;10.90;7.25;;;;;;;;;;4451684;32;20272;-58
2021/06/18 07:42:49;;;;;;;12.23;6.20;;;;;;;;;;4451920;32;20269;-59
2021/06/18 07:45:15;;;;;;;7.47;5.68;;;;;;;;;;4451309;32;20200;-58
2021/06/18 07:47:41;;;;;;;9.27;5.32;;;;;;;;;;4451469;32;20224;-58
2021/06/18 07:50:12;;;;;;;7.55;5.68;;;;;;;;;;4451325;32;20193;-58
2021/06/18 07:52:37;;;;;;;7.90;6.32;;;;;;;;;;4451838;32;20240;-58
2021/06/18 07:55:06;;;;;;;9.55;5.82;;;;;;;;;;4450411;32;20371;-59
2021/06/18 07:57:32;;;;;;;13.18;8.73;;;;;;;;;;4462526;32;20784;-58
2021/06/18 07:59:57;;;;;;;11.43;7.72;;;;;;;;;;4465898;32;20224;-59
2021/06/18 08:02:23;;;;;;;18.67;7.82;;;;;;;;;;4467008;32;20342;-59
2021/06/18 08:04:49;;;;;;;9.68;6.45;;;;;;;;;;4466914;32;20232;-59
2021/06/18 08:07:14;;;;;;;8.38;7.50;;;;;;;;;;4459036;32;20323;-58
2021/06/18 08:09:39;;;;;;;7.78;6.97;;;;;;;;;;4466810;32;20651;-58
2021/06/18 08:12:05;;;;;;;11.30;6.80;;;;;;;;;;4466288;32;20248;-59
2021/06/18 08:14:31;;;;;;;8.38;6.53;;;;;;;;;;4452393;32;20632;-59
2021/06/18 08:16:57;;;;;;;9.55;7.35;;;;;;;;;;4457394;32;20254;-59
2021/06/18 08:19:22;;;;;;;11.77;7.12;;;;;;;;;;4465726;32;20299;-59
2021/06/18 08:21:48;;;;;;;17.00;7.10;;;;;;;;;;4466776;32;20315;-59
2021/06/18 08:24:13;;;;;;;15.27;7.53;;;;;;;;;;4466550;32;20271;-59
2021/06/18 08:26:39;;;;;;;8.57;6.75;;;;;;;;;;4466937;32;20212;-59
2021/06/18 08:29:05;;;;;;;15.05;7.37;;;;;;;;;;4466618;32;20215;-58
2021/06/18 08:31:30;;;;;;;9.38;7.75;;;;;;;;;;4455603;32;20216;-59
2021/06/18 08:33:57;;;;;;;7.28;6.57;;;;;;;;;;4450833;32;20205;-59
2021/06/18 08:36:23;;;;;;;16.52;8.25;;;;;;;;;;4450434;32;20240;-59
2021/06/18 08:38:49;;;;;;;8.27;6.80;;;;;;;;;;4449653;32;20312;-59
2021/06/18 08:41:14;;;;;;;9.23;7.90;;;;;;;;;;4450940;32;20228;-59
2021/06/18 08:43:40;;;;;;;9.48;7.35;;;;;;;;;;4450083;32;20208;-59
2021/06/18 08:46:06;;;;;;;14.60;7.75;;;;;;;;;;4449099;32;20291;-59
2021/06/18 08:48:32;;;;;;;7.90;6.95;;;;;;;;;;4450464;32;20235;-59
2021/06/18 08:50:59;;;;;;;17.83;7.95;;;;;;;;;;4450438;32;20205;-59
2021/06/18 08:53:26;;;;;;;10.65;7.53;;;;;;;;;;4449638;32;20288;-59
2021/06/18 08:55:54;;;;;;;8.52;7.55;;;;;;;;;;4450160;32;20234;-59
2021/06/18 08:58:20;;;;;;;11.90;7.93;;;;;;;;;;4450349;32;20200;-59
2021/06/18 09:00:47;;;;;;;9.80;7.57;;;;;;;;;;4449162;32;20278;-59
2021/06/18 09:03:32;;;;;;;13.38;8.20;;;;;;;;;;4449126;32;20256;-59
2021/06/18 09:05:59;;;;;;;22.30;8.18;;;;;;;;;;4450019;32;20224;-60
2021/06/18 09:08:25;;;;;;;9.70;6.62;;;;;;;;;;4463651;32;20751;-59
2021/06/18 09:10:51;;;;;;;9.13;6.80;;;;;;;;;;4465530;32;20279;-60
2021/06/18 09:13:22;;;;;;;10.00;6.50;;;;;;;;;;4465594;32;20271;-60
2021/06/18 09:15:52;;;;;;;9.40;7.30;;;;;;;;;;4465315;32;20282;-62
2021/06/18 09:18:30;;;;;;;17.92;7.45;;;;;;;;;;4450039;32;20246;-61
2021/06/18 09:21:13;;;;;;;12.32;6.15;;;;;;;;;;4449490;32;20213;-60
2021/06/18 09:23:45;;;;;;;11.88;6.28;;;;;;;;;;4447601;32;20250;-59
2021/06/18 09:26:34;;;;;;;10.45;6.60;;;;;;;;;;4449439;32;20212;-60
2021/06/18 09:29:05;;;;;;;7.50;6.22;;;;;;;;;;4449581;32;20565;-61
2021/06/18 09:31:35;;;;;;;13.10;6.45;;;;;;;;;;4456284;32;20208;-61
2021/06/18 09:34:03;;;;;;;13.23;6.60;;;;;;;;;;4464834;32;20196;-61
2021/06/18 09:36:30;;;;;;;6.75;5.97;;;;;;;;;;4463521;32;20263;-61
2021/06/18 09:38:56;;;;;;;13.98;6.25;;;;;;;;;;4464951;32;20228;-60
2021/06/18 09:41:39;;;;;;;9.63;4.75;;;;;;;;;;4465855;32;20671;-60
2021/06/18 09:44:06;;;;;;;7.05;4.72;;;;;;;;;;4464539;32;20227;-62
2021/06/18 09:46:43;;;;;;;5.40;4.85;;;;;;;;;;4465244;32;20216;-61
2021/06/18 09:49:14;;;;;;;7.95;5.35;;;;;;;;;;4464833;32;20570;-61
2021/06/18 09:52:21;;;;;;;8.50;5.37;;;;;;;;;;4450159;32;20393;-61
2021/06/18 09:54:53;;;;;;;5.00;3.58;;;;;;;;;;4446177;32;20692;-62
2021/06/18 09:57:21;;;;;;;14.55;5.20;;;;;;;;;;4447795;32;20216;-61
2021/06/18 10:00:03;;;;;;;9.65;4.57;;;;;;;;;;4451650;32;20724;-62
2021/06/18 10:02:51;;;;;;;8.57;4.35;;;;;;;;;;4450429;32;20237;-60
2021/06/18 10:05:25;;;;;;;6.40;4.12;;;;;;;;;;4448659;32;20225;-61
2021/06/18 10:07:53;;;;;;;8.55;3.70;;;;;;;;;;4462192;32;20227;-60
2021/06/18 10:10:20;;;;;;;5.53;3.65;;;;;;;;;;4464986;32;20560;-61
2021/06/18 10:12:46;;;;;;;6.57;3.85;;;;;;;;;;4465003;32;20300;-60
2021/06/18 10:15:20;;;;;;;7.95;3.75;;;;;;;;;;4466010;32;20196;-62
2021/06/18 10:17:48;;;;;;;7.78;3.90;;;;;;;;;;4453345;32;20265;-60
2021/06/18 10:20:16;;;;;;;6.80;3.95;;;;;;;;;;4447405;32;20372;-62
2021/06/18 10:23:10;;;;;;;8.65;3.97;;;;;;;;;;4449539;32;20251;-59
2021/06/18 10:25:52;;;;;;;4.07;3.65;;;;;;;;;;4448810;32;20285;-59
2021/06/18 10:28:20;;;;;;;6.97;3.45;;;;;;;;;;4448831;32;20308;-60
2021/06/18 10:30:51;;;;;;;11.38;3.65;;;;;;;;;;4451040;32;20250;-59
2021/06/18 10:33:25;;;;;;;6.68;3.28;;;;;;;;;;4463075;32;20285;-61
2021/06/18 10:36:04;;;;;;;20.80;4.65;;;;;;;;;;4465836;32;20278;-59
2021/06/18 10:38:32;;;;;;;17.23;4.28;;;;;;;;;;4467696;32;20208;-59
2021/06/18 10:41:22;;;;;;;5.43;3.45;;;;;;;;;;4467918;32;20200;-59
2021/06/18 10:43:51;;;;;;;8.02;3.25;;;;;;;;;;4468049;32;20228;-60
2021/06/18 10:46:30;;;;;;;4.37;3.12;;;;;;;;;;4468001;32;20299;-59
2021/06/18 10:49:02;;;;;;;6.07;3.95;;;;;;;;;;4468228;32;20300;-59
2021/06/18 10:51:28;;;;;;;6.47;4.18;;;;;;;;;;4468291;32;20348;-60
2021/06/18 10:54:17;;;;;;;5.90;3.50;;;;;;;;;;4467806;32;20319;-59
2021/06/18 10:56:45;;;;;;;3.85;3.30;;;;;;;;;;4468213;32;20616;-60
2021/06/18 10:59:16;;;;;;;7.55;3.60;;;;;;;;;;4467900;32;20195;-59
2021/06/18 11:01:42;;;;;;;4.12;2.80;;;;;;;;;;4466653;32;20251;-59
2021/06/18 11:04:08;;;;;;;5.22;3.55;;;;;;;;;;4468228;32;20534;-60
2021/06/18 11:06:48;;;;;;;6.25;3.42;;;;;;;;;;4467683;32;20299;-59
2021/06/18 11:09:45;;;;;;;9.25;3.47;;;;;;;;;;4468025;32;20327;-59
2021/06/18 11:12:23;;;;;;;10.57;3.92;;;;;;;;;;4466796;32;20292;-59
2021/06/18 11:14:54;;;;;;;3.62;2.95;;;;;;;;;;4452278;32;20534;-59
2021/06/18 11:17:45;;;;;;;6.62;3.17;;;;;;;;;;4459927;32;20643;-60
2021/06/18 11:20:13;;;;;;;12.30;3.47;;;;;;;;;;4466606;32;20253;-59
2021/06/18 11:22:49;;;;;;;11.98;3.50;;;;;;;;;;4466363;32;20276;-59
2021/06/18 11:25:39;;;;;;;8.43;3.58;;;;;;;;;;4467291;32;20262;-59
2021/06/18 11:30:56;;;;;;;4.82;3.55;;;;;;;;;;4460798;32;20196;-61
2021/06/18 11:33:40;;;;;;;10.18;3.65;;;;;;;;;;4452149;32;20239;-60
2021/06/18 11:36:16;;;;;;;4.40;3.25;;;;;;;;;;4451526;32;20302;-59
2021/06/18 11:38:43;;;;;;;4.82;2.97;;;;;;;;;;4451354;32;20275;-59
2021/06/18 11:41:10;;;;;;;5.53;4.12;;;;;;;;;;4451444;32;20251;-59
2021/06/18 11:43:38;;;;;;;5.95;3.35;;;;;;;;;;4449654;32;20360;-59
2021/06/18 11:46:04;;;;;;;8.80;3.20;;;;;;;;;;4452455;32;20354;-59
2021/06/18 11:48:30;;;;;;;5.10;3.25;;;;;;;;;;4451465;32;20278;-59
2021/06/18 11:50:56;;;;;;;4.57;3.17;;;;;;;;;;4450999;32;20735;-59
2021/06/18 11:53:22;;;;;;;10.07;3.65;;;;;;;;;;4452034;32;20322;-60
2021/06/18 11:55:58;;;;;;;4.85;2.72;;;;;;;;;;4452177;32;20727;-61
2021/06/18 11:58:37;;;;;;;3.55;3.15;;;;;;;;;;4452133;32;20242;-59
2021/06/18 12:01:20;;;;;;;3.87;3.40;;;;;;;;;;4452227;32;20276;-60
2021/06/18 12:03:48;;;;;;;7.22;3.37;;;;;;;;;;4451643;32;20283;-59
2021/06/18 12:06:21;;;;;;;4.28;3.22;;;;;;;;;;4454175;32;20204;-60
2021/06/18 12:09:05;;;;;;;12.25;3.40;;;;;;;;;;4467820;32;20230;-59
2021/06/18 12:11:42;;;;;;;4.70;3.53;;;;;;;;;;4451820;32;20216;-59
2021/06/18 12:14:09;;;;;;;5.47;2.83;;;;;;;;;;4463303;32;20275;-59
2021/06/18 12:16:47;;;;;;;5.97;3.55;;;;;;;;;;4463479;32;20236;-60
2021/06/18 12:19:38;;;;;;;4.43;2.80;;;;;;;;;;4451642;32;20222;-59
2021/06/18 12:22:32;;;;;;;6.75;2.70;;;;;;;;;;4451507;32;20476;-59
2021/06/18 12:24:59;;;;;;;7.07;2.47;;;;;;;;;;4449663;32;20225;-58
2021/06/18 12:27:33;;;;;;;5.32;3.15;;;;;;;;;;4451177;32;20236;-60
2021/06/18 12:30:06;;;;;;;4.28;2.78;;;;;;;;;;4451851;32;20525;-59
2021/06/18 12:32:34;;;;;;;3.65;2.95;;;;;;;;;;4451556;32;20256;-60
2021/06/18 12:35:01;;;;;;;8.35;3.30;;;;;;;;;;4450941;32;20540;-59
2021/06/18 12:37:29;;;;;;;7.30;3.50;;;;;;;;;;4450201;32;20220;-60
2021/06/18 12:40:03;;;;;;;6.75;4.62;;;;;;;;;;4450598;32;20326;-60
2021/06/18 12:42:39;;;;;;;15.25;4.75;;;;;;;;;;4450545;32;20389;-60
2021/06/18 12:45:15;;;;;;;8.50;3.83;;;;;;;;;;4450751;32;20226;-60
2021/06/18 12:47:42;;;;;;;6.50;4.35;;;;;;;;;;4450237;32;20483;-60
2021/06/18 12:50:20;;;;;;;11.93;5.78;;;;;;;;;;4449925;32;20231;-59
2021/06/18 12:52:56;;;;;;;18.58;5.03;;;;;;;;;;4449868;32;20266;-59
2021/06/18 12:55:28;;;;;;;12.13;4.90;;;;;;;;;;4450022;32;20204;-60
2021/06/18 12:58:23;;;;;;;15.90;4.93;;;;;;;;;;4450165;32;20372;-59
2021/06/18 13:00:55;;;;;;;8.32;5.10;;;;;;;;;;4449998;32;20222;-60
2021/06/18 13:03:48;;;;;;;13.32;4.18;;;;;;;;;;4449571;32;20220;-58
2021/06/18 13:06:15;;;;;;;11.20;3.83;;;;;;;;;;4450896;32;20639;-58
2021/06/18 13:08:55;;;;;;;9.75;4.40;;;;;;;;;;4463928;32;20232;-59
2021/06/18 13:11:24;;;;;;;10.38;4.30;;;;;;;;;;4465354;32;20224;-59
2021/06/18 13:14:05;;;;;;;6.07;4.62;;;;;;;;;;4464876;32;20268;-59
2021/06/18 13:16:31;;;;;;;9.27;4.80;;;;;;;;;;4462537;32;20680;-59
2021/06/18 13:18:58;;;;;;;18.87;5.70;;;;;;;;;;4449992;32;20521;-59
2021/06/18 13:21:25;;;;;;;12.35;5.50;;;;;;;;;;4448207;32;20311;-60
2021/06/18 13:24:08;;;;;;;13.50;5.05;;;;;;;;;;4449515;32;20218;-59
2021/06/18 13:26:33;;;;;;;14.80;4.75;;;;;;;;;;4449818;32;20844;-59
2021/06/18 13:29:12;;;;;;;7.75;5.57;;;;;;;;;;4449627;32;20204;-58
2021/06/18 13:31:38;;;;;;;9.20;5.22;;;;;;;;;;4457533;32;20216;-58
2021/06/18 13:34:08;;;;;;;8.23;4.20;;;;;;;;;;4464933;32;20274;-58
2021/06/18 13:36:36;;;;;;;6.30;4.07;;;;;;;;;;4465106;32;20856;-59
2021/06/18 13:39:21;;;;;;;13.50;4.07;;;;;;;;;;4465033;32;20197;-59
2021/06/18 13:41:47;;;;;;;13.25;5.00;;;;;;;;;;4432761;32;20225;-59
2021/06/18 13:44:13;;;;;;;8.32;4.93;;;;;;;;;;4464638;32;20657;-58
2021/06/18 13:46:39;;;;;;;8.38;4.00;;;;;;;;;;4464993;32;20216;-58
2021/06/18 13:49:06;;;;;;;8.88;5.15;;;;;;;;;;4463790;32;20244;-59
2021/06/18 13:51:32;;;;;;;7.12;4.40;;;;;;;;;;4465145;32;20676;-58
2021/06/18 13:53:59;;;;;;;10.48;4.35;;;;;;;;;;4464996;32;20230;-58
2021/06/18 13:56:26;;;;;;;6.93;4.43;;;;;;;;;;4463248;32;20784;-58
2021/06/18 13:58:52;;;;;;;9.32;4.97;;;;;;;;;;4464895;32;20351;-59
2021/06/18 14:01:17;;;;;;;5.93;3.87;;;;;;;;;;4465133;32;20594;-59
2021/06/18 14:03:43;;;;;;;7.35;4.22;;;;;;;;;;4464457;32;20215;-59
2021/06/18 14:06:08;;;;;;;11.68;5.35;;;;;;;;;;4464233;32;20327;-60
2021/06/18 14:08:35;;;;;;;7.68;4.97;;;;;;;;;;4464582;32;20303;-59
2021/06/18 14:11:00;;;;;;;5.70;3.92;;;;;;;;;;4463099;32;20407;-59
2021/06/18 14:13:26;;;;;;;6.18;4.40;;;;;;;;;;4456747;32;20236;-59
2021/06/18 14:15:52;;;;;;;7.18;3.95;;;;;;;;;;4444652;32;20352;-59
2021/06/18 14:18:18;;;;;;;8.90;4.35;;;;;;;;;;4461440;32;20627;-58
2021/06/18 14:20:46;;;;;;;10.00;4.20;;;;;;;;;;4462176;32;20326;-59
2021/06/18 14:23:13;;;;;;;15.15;4.60;;;;;;;;;;4463179;32;20647;-59
2021/06/18 14:25:39;;;;;;;7.65;4.80;;;;;;;;;;4460604;32;20204;-59
2021/06/18 14:28:04;;;;;;;8.57;4.22;;;;;;;;;;4447388;32;20228;-59
2021/06/18 14:30:30;;;;;;;11.82;4.93;;;;;;;;;;4448318;32;20323;-59
2021/06/18 14:32:56;;;;;;;7.78;4.60;;;;;;;;;;4465093;32;20219;-59
2021/06/18 14:35:23;;;;;;;8.82;4.57;;;;;;;;;;4463331;32;20742;-59
2021/06/18 14:37:48;;;;;;;5.15;3.72;;;;;;;;;;4449567;32;20520;-60
2021/06/18 14:40:14;;;;;;;9.63;4.35;;;;;;;;;;4447793;32;20747;-59
2021/06/18 14:42:41;;;;;;;10.38;4.18;;;;;;;;;;4435295;32;20220;-59
2021/06/18 14:45:07;;;;;;;5.25;3.65;;;;;;;;;;4449201;32;20222;-60
2021/06/18 14:47:33;;;;;;;5.20;3.22;;;;;;;;;;4449314;32;20205;-60
2021/06/18 14:49:58;;;;;;;4.03;3.08;;;;;;;;;;4449085;32;20230;-59
2021/06/18 14:52:24;;;;;;;5.47;4.07;;;;;;;;;;4448329;32;20331;-59